METAR Data
IDs: Format: Raw Decoded Include TAF

Data at: 0926 UTC 18 Jan 2022

KTTF 180915Z AUTO 25008KT 10SM OVC027 M01/M07 A2993 RMK AO2 T10151066